• Join FlightAware (Why Join?)
  • Login
  • US Flag 
Rudolph Flight #1: Arrived! 
03:26AM EST


 

Airport Tracker/Info


-or-


 

Live Flight TrackerFlight Track Log ✈ DAL268 ✈ 26-Sep-2013 ✈ KJFK - LLBG / TLV

Flight Track Log - Related Links

Times and Time Zones

All times are in EDT time to prevent confusion due to time zone crossing. See the DAL268 flight status page for this flight to view local times or setup timezone preferences in your user account.

Time Position Orientation Groundspeed Altitude Reporting Facility
EDT Latitude Longitude Course Direction KTS MPH feet Rate Location/Type
09:39PM 40.6330 -73.7830 303° West 120 138  Level FlightAware
09:40PM 40.6400 -73.7990 300° West 175 201 720 Level FlightAware
09:40PM 40.6490 -73.8200 299° West 192 221 500 1,560 Climbing FlightAware
09:40PM 40.6500 -73.8280 279° West 197 227 700 1,800 Climbing FlightAware
09:41PM 40.6420 -73.8560 249° West 207 238 1,400 1,320 Climbing FlightAware
09:41PM 40.6300 -73.8760 232° Southwest 235 270 1,700 960 Climbing FlightAware
09:41PM 40.6140 -73.8900 214° Southwest 249 287 2,000 1,200 Climbing FlightAware
09:41PM 40.6090 -73.8920 197° South 254 292 2,100 480 Climbing FlightAware
09:41PM 40.6000 -73.8950 194° South 263 303 2,100 420 Level FlightAware
09:41PM 40.5930 -73.8950 180° South 272 313 2,200 1,020 Climbing FlightAware
09:42PM 40.5630 -73.8860 167° South 294 338 2,600 2,160 Climbing FlightAware
09:42PM 40.5410 -73.8650 144° Southeast 287 330 3,800 2,700 Climbing FlightAware
09:42PM 40.5230 -73.8390 132° Southeast 294 338 4,400 1,800 Climbing FlightAware
09:43PM 40.5130 -73.8210 126° Southeast 302 348 4,800 1,680 Climbing FlightAware
09:43PM 40.5100 -73.8070 106° East 303 349 5,000 2,220 Climbing FlightAware
09:43PM 40.5080 -73.7920 100° East 299 344 5,400 3,000 Climbing FlightAware
09:43PM 40.5150 -73.7440 79° East 290 334 6,800 2,460 Climbing FlightAware
09:44PM 40.5260 -73.7130 65° Northeast 297 342 7,400 2,340 Climbing FlightAware
09:44PM 40.5497 -73.6613 59° Northeast 302 348 8,800 2,340 Climbing FlightAware ADS-B (KSNC)
09:45PM 40.5810 -73.5940 58° Northeast 311 358 10,300 1,860 Climbing FlightAware
09:45PM 40.5840 -73.5760 78° East 319 367 10,500 900 Climbing FlightAware
09:46PM 40.5770 -73.5190 99° East 353 406 10,900 1,140 Climbing FlightAware
09:46PM 40.5663 -73.4867 114° Southeast 368 423 11,300 1,200 Climbing FlightAware ADS-B (KSNC)
09:47PM 40.5250 -73.3740 116° Southeast 406 467 12,300 1,260 Climbing FlightAware
09:47PM 40.5229 -73.3695 121° Southeast 408 470 12,500 1,320 Climbing FlightAware ADS-B (KSNC)
09:47PM 40.4970 -73.2900 113° Southeast 430 495 13,100 1,260 Climbing FlightAware
09:48PM 40.4762 -73.2318 115° Southeast 442 509 13,800 1,680 Climbing FlightAware ADS-B (KSNC)
09:48PM 40.4423 -73.1214 112° Southeast 454 522 15,000 1,800 Climbing FlightAware ADS-B (KSNC)
09:49PM 40.4399 -73.0886 95° East 452 520 15,400 1,860 Climbing FlightAware ADS-B (KSNC)
09:49PM 40.4438 -73.0261 85° East 453 521 16,300 1,980 Climbing FlightAware ADS-B (KSNC)
09:50PM 40.4583 -72.9257 79° East 455 524 17,400 1,800 Climbing FlightAware ADS-B (KSNC)
09:50PM 40.4753 -72.8190 78° East 464 534 18,500 1,200 Climbing FlightAware ADS-B (KSNC)
09:51PM 40.4906 -72.7099 80° East 473 544 19,000 360 Climbing FlightAware ADS-B (KSNC)
09:52PM 40.5067 -72.5941 80° East 475 547 19,000 660 Level FlightAware ADS-B (KSNC)
09:52PM 40.5187 -72.5027 80° East 480 552 19,900 1,500 Climbing FlightAware ADS-B (KSNC)
09:53PM 40.5330 -72.3990 80° East 486 559 20,700 1,500 Climbing FlightAware
09:53PM 40.5334 -72.3929 85° East 487 560 20,800 1,440 Climbing FlightAware ADS-B (KSNC)
09:53PM 40.5465 -72.2933 80° East 491 565 21,600 1,440 Climbing FlightAware ADS-B (KSNC)
09:54PM 40.5590 -72.1990 80° East 494 568 22,400 1,680 Climbing FlightAware
09:54PM 40.5645 -72.1545 81° East 493 567 22,900 1,440 Climbing FlightAware ADS-B (KSNC)
09:55PM 40.5850 -71.9940 80° East 500 575 24,100 1,200 Climbing FlightAware
09:56PM 40.5990 -71.8880 80° East 506 582 24,700 1,020 Climbing FlightAware
09:56PM 40.6130 -71.7780 80° East 514 592 25,300 1,140 Climbing FlightAware
09:57PM 40.6270 -71.6700 80° East 513 590 26,100 1,500 Climbing FlightAware
09:57PM 40.6410 -71.5600 80° East 510 587 27,100 1,440 Climbing FlightAware
09:58PM 40.6530 -71.4610 81° East 511 588 27,800 1,020 Climbing FlightAware
09:59PM 40.6670 -71.3440 81° East 517 595 28,300 960 Climbing FlightAware
09:59PM 40.6810 -71.2350 80° East 516 594 29,000 1,080 Climbing FlightAware
10:00PM 40.6940 -71.1290 81° East 518 596 29,600 1,020 Climbing FlightAware
10:00PM 40.7070 -71.0200 81° East 518 596 30,200 1,080 Climbing FlightAware
10:01PM 40.7210 -70.9050 81° East 517 595 30,900 600 Climbing FlightAware
10:02PM 40.7330 -70.8030 81° East 516 594 30,900  Level FlightAware
10:02PM 40.7450 -70.7030 81° East 516 594 30,900  Level FlightAware
10:03PM 40.7580 -70.5910 81° East 516 594 30,900  Level FlightAware
10:03PM 40.7710 -70.4730 82° East 516 594 30,900  Level FlightAware
10:04PM 40.7820 -70.3830 81° East 517 595 30,900  Level FlightAware
10:04PM 40.7930 -70.2870 81° East 517 595 30,900  Level FlightAware
10:05PM 40.8050 -70.1890 81° East 517 595 30,900  Level FlightAware
10:06PM 40.8160 -70.0990 81° East 517 595 30,900  Level FlightAware
10:06PM 40.8270 -70.0040 81° East 517 595 30,900  Level FlightAware
10:07PM 40.8390 -69.9080 81° East 517 595 30,900  Level FlightAware
10:07PM 40.8500 -69.8100 82° East 517 595 30,900  Level FlightAware
10:08PM 40.8620 -69.7120 81° East 517 595 30,900  Level FlightAware
10:09PM 40.8740 -69.6130 81° East 517 595 30,900  Level FlightAware
10:09PM 40.8850 -69.5180 81° East 517 595 30,900  Level FlightAware
10:10PM 40.8970 -69.4220 81° East 517 595 30,900  Level FlightAware
10:10PM 40.9080 -69.3260 81° East 517 595 30,900  Level FlightAware
10:11PM 40.9190 -69.2330 81° East 517 595 30,900  Level FlightAware
10:12PM 40.9310 -69.1380 80° East 517 595 30,900  Level FlightAware
10:12PM 40.9420 -69.0420 81° East 517 595 30,900  Level FlightAware
10:13PM 40.9540 -68.9460 81° East 517 595 30,900 2,400 Level FlightAware
10:14PM 40.9742 -68.5600 81° East 523 602 33,900 1,800 Climbing New York Center
10:15PM 40.9936 -68.3725 82° East 523 602 33,900  Level New York Center
10:16PM 41.0106 -68.1822 83° East 523 602 33,900  Level New York Center
10:17PM 41.0272 -67.9947 83° East 523 602 33,900  Level New York Center
10:18PM 41.0478 -67.8069 82° East 523 602 33,900  Level New York Center
10:19PM 41.0617 -67.6164 84° East 523 602 33,900  Level New York Center
10:20PM 41.0778 -67.4314 83° East 517 595 33,900  Level New York Center
10:20PM 41.1167 -67.0000 78° East 515 593 34,000  Climbing New York Oceanic (ODAPS)
10:22PM 41.1167 -67.0000 78° East 525 604 34,000  Level New York Oceanic (ODAPS)
10:27PM 41.2607 -66.0658 79° East 515 593 34,000 -60 Level FlightAware Transoceanic
10:27PM 41.2640 -66.0470 79° East 33,900 -120 Descending FlightAware
10:27PM 41.2830 -65.9220 79° East 532 612 33,900 120 Level FlightAware
10:28PM 41.2886 -65.8785 79° East 525 604 34,000  Climbing FlightAware Transoceanic
10:28PM 41.2980 -65.8180 79° East 532 612 33,900 -120 Descending FlightAware
10:29PM 41.3200 -65.6680 79° East 532 612 33,900  Level FlightAware
10:30PM 41.3430 -65.5100 79° East 533 613 33,900  Level FlightAware
10:30PM 41.3570 -65.4110 79° East 533 613 33,900  Level FlightAware
10:31PM 41.3720 -65.3120 79° East 533 613 33,900  Level FlightAware
10:31PM 41.3930 -65.1620 79° East 530 610 33,900  Level FlightAware
10:32PM 41.4070 -65.0590 80° East 531 611 33,900  Level FlightAware
10:33PM 41.4240 -64.9400 79° East 531 611 33,900  Level FlightAware
10:33PM 41.4400 -64.8250 79° East 529 609 33,900  Level FlightAware
10:34PM 41.4540 -64.7200 80° East 528 608 33,900  Level FlightAware
10:34PM 41.4700 -64.6020 80° East 526 605 33,900  Level FlightAware
10:35PM 41.4860 -64.4870 79° East 524 603 33,900  Level FlightAware
10:36PM 41.5040 -64.3490 80° East 524 603 33,900  Level FlightAware
10:36PM 41.5250 -64.2010 79° East 524 603 33,900  Level FlightAware
10:37PM 41.5390 -64.0930 80° East 524 603 33,900  Level FlightAware
10:38PM 41.5570 -63.9510 80° East 522 601 33,900  Level FlightAware
10:38PM 41.5740 -63.8210 80° East 522 601 33,900 60 Level FlightAware
10:39PM 41.5833 -63.7000 80° East 521 600 34,000  Climbing New York Oceanic (ODAPS)
10:39PM 41.5900 -63.7010 80° East 521 600 33,900 -180 Descending FlightAware
10:40PM 41.6040 -63.5830 81° East 522 601 33,900  Level FlightAware
10:40PM 41.6200 -63.4620 80° East 522 601 33,900  Level FlightAware
10:41PM 41.6340 -63.3480 81° East 522 601 33,900  Level FlightAware
10:42PM 41.6490 -63.2240 81° East 522 601 33,900  Level FlightAware
10:42PM 41.6650 -63.0970 80° East 521 600 33,900  Level FlightAware
10:43PM 41.6780 -62.9900 81° East 520 598 33,900  Level FlightAware
10:43PM 41.6900 -62.8840 81° East 520 598 33,900  Level FlightAware
10:44PM 41.7020 -62.7840 81° East 520 598 33,900 60 Level FlightAware
10:45PM 41.7208 -62.5951 81° East 521 600 34,000  Climbing FlightAware Transoceanic
10:45PM 41.7140 -62.6870 81° East 520 598 33,900 -180 Descending FlightAware
10:45PM 41.7250 -62.5890 81° East 520 598 33,900  Level FlightAware
10:46PM 41.7370 -62.4920 81° East 520 598 33,900  Level FlightAware
10:46PM 41.7480 -62.4000 81° East 520 598 33,900  Level FlightAware
10:47PM 41.7590 -62.3020 81° East 520 598 33,900  Level FlightAware
10:48PM 41.7710 -62.2050 81° East 520 598 33,900  Level FlightAware
10:48PM 41.7830 -62.1050 81° East 520 598 33,900  Level FlightAware
10:49PM 41.7930 -62.0130 82° East 520 598 33,900  Level FlightAware
10:50PM 41.8400 -61.5790 82° East 515 593 33,900  Level FlightAware
10:51PM 41.8510 -61.4710 82° East 515 593 33,900  Level FlightAware
10:51PM 41.8640 -61.3600 81° East 515 593 33,900  Level FlightAware
10:52PM 41.8810 -61.1950 82° East 517 595 33,900  Level FlightAware
10:53PM 41.8910 -61.0980 82° East 517 595 33,900  Level FlightAware
10:54PM 41.9020 -61.0000 81° East 517 595 33,900  Level FlightAware
10:54PM 41.9120 -60.9030 82° East 517 595 33,900  Level FlightAware
10:55PM 41.9220 -60.8050 82° East 517 595 33,900  Level FlightAware
10:55PM 41.9320 -60.7080 82° East 517 595 33,900  Level FlightAware
10:56PM 41.9430 -60.6080 82° East 517 595 33,900  Level FlightAware
10:57PM 41.9530 -60.5100 82° East 517 595 33,900  Level FlightAware
10:57PM 41.9630 -60.4130 82° East 517 595 33,900  Level FlightAware
10:58PM 41.9730 -60.3150 82° East 517 595 33,900  Level FlightAware
10:58PM 41.9830 -60.2180 82° East 517 595 33,900 120 Level FlightAware
10:58PM 42.0000 -60.0000 71° East 557 641 34,000  Climbing New York Oceanic (ODAPS)
10:59PM 41.9940 -60.1180 82° East 517 595 33,900  Descending FlightAware
10:59PM 42.0500 -59.8167 71° East 564 649 34,000  Climbing New York Oceanic (ODAPS)
11:00PM 42.0050 -60.0120 82° East 517 595 33,900 -120 Descending FlightAware
11:00PM 42.0150 -59.9150 82° East 517 595 33,900  Level FlightAware
11:01PM 42.0250 -59.8170 82° East 517 595 33,900  Level FlightAware
11:01PM 42.0350 -59.7190 82° East 517 595 33,900  Level FlightAware
11:04PM 42.1746 -59.3549 63° Northeast  Level Estimated
11:05PM 42.2909 -58.8118 72° East 557 641 34,000  Level FlightAware Transoceanic
11:06PM 42.3449 -58.5995 72° East 564 649 34,000  Level FlightAware Transoceanic
11:07PM 42.3928 -58.3955 72° East 564 649 34,000  Level FlightAware Transoceanic
11:08PM 42.4403 -58.1913 73° East 564 649 34,000  Level FlightAware Transoceanic
11:09PM 42.4875 -57.9867 73° East 564 649 34,000  Level FlightAware Transoceanic
11:10PM 42.5343 -57.7818 73° East 564 649 34,000  Level FlightAware Transoceanic
11:11PM 42.5808 -57.5766 73° East 564 649 34,000  Level FlightAware Transoceanic
11:12PM 42.6268 -57.3711 73° East 564 649 34,000  Level FlightAware Transoceanic
11:13PM 42.6726 -57.1653 73° East 564 649 34,000  Level FlightAware Transoceanic
11:14PM 42.7179 -56.9592 73° East 564 649 34,000  Level FlightAware Transoceanic
11:15PM 42.7629 -56.7528 74° East 564 649 34,000  Level FlightAware Transoceanic
11:16PM 42.8074 -56.5461 74° East 564 649 34,000  Level FlightAware Transoceanic
11:17PM 42.8517 -56.3391 74° East 564 649 34,000  Level FlightAware Transoceanic
11:18PM 42.8955 -56.1318 74° East 564 649 34,000  Level FlightAware Transoceanic
11:19PM 42.9390 -55.9242 74° East 564 649 34,000  Level FlightAware Transoceanic
11:20PM 42.9821 -55.7163 74° East 564 649 34,000  Level FlightAware Transoceanic
11:20PM 42.9667 -55.7667 74° East 576 663 34,000  Level New York Oceanic (ODAPS)
11:21PM 43.0248 -55.5082 74° East 564 649 34,000  Level FlightAware Transoceanic
11:22PM 43.0672 -55.2997 75° East 564 649 34,000  Level FlightAware Transoceanic
11:23PM 43.1091 -55.0910 75° East 564 649 34,000  Level FlightAware Transoceanic
11:24PM 43.1507 -54.8819 75° East 564 649 34,000  Level FlightAware Transoceanic
11:25PM 43.1919 -54.6726 75° East 564 649 34,000  Level FlightAware Transoceanic
11:26PM 43.2212 -54.5026 75° East 576 663 34,000  Level FlightAware Transoceanic
11:27PM 43.2622 -54.2909 75° East 576 663 34,000  Level FlightAware Transoceanic
11:28PM 43.3029 -54.0789 75° East 576 663 34,000  Level FlightAware Transoceanic
11:29PM 43.3432 -53.8666 75° East 576 663 34,000  Level FlightAware Transoceanic
11:30PM 43.3831 -53.6541 76° East 576 663 34,000  Level FlightAware Transoceanic
11:31PM 43.4226 -53.4413 76° East 576 663 34,000  Level FlightAware Transoceanic
11:32PM 43.4617 -53.2282 76° East 576 663 34,000  Level FlightAware Transoceanic
11:33PM 43.5004 -53.0148 76° East 576 663 34,000  Level FlightAware Transoceanic
11:34PM 43.5387 -52.8012 76° East 576 663 34,000  Level FlightAware Transoceanic
11:35PM 43.5766 -52.5872 76° East 576 663 34,000  Level FlightAware Transoceanic
11:36PM 43.6141 -52.3731 76° East 576 663 34,000  Level FlightAware Transoceanic
11:37PM 43.6512 -52.1586 77° East 576 663 34,000  Level FlightAware Transoceanic
11:38PM 43.6879 -51.9439 77° East 576 663 34,000  Level FlightAware Transoceanic
11:39PM 43.7242 -51.7289 77° East 576 663 34,000  Level FlightAware Transoceanic
11:40PM 43.7601 -51.5137 77° East 576 663 34,000  Level FlightAware Transoceanic
11:40PM 43.7667 -51.4833 77° East 584 672 34,000  Level New York Oceanic (ODAPS)
11:41PM 43.7956 -51.2982 77° East 576 663 34,000  Level FlightAware Transoceanic
11:42PM 43.8307 -51.0825 77° East 576 663 34,000  Level FlightAware Transoceanic
11:43PM 43.8653 -50.8665 78° East 576 663 34,000  Level FlightAware Transoceanic
11:44PM 43.8996 -50.6502 78° East 576 663 34,000  Level FlightAware Transoceanic
11:45PM 43.9335 -50.4337 78° East 576 663 34,000  Level FlightAware Transoceanic
11:46PM 43.9678 -50.2126 78° East 584 672 34,000  Level FlightAware Transoceanic
11:47PM 44.0000 -50.0000 63° Northeast 584 672 34,000  Level FlightAware Transoceanic
11:47PM 44.0000 -50.0000 63° Northeast 590 679 34,000  Level New York Oceanic (ODAPS)
11:48PM 44.0726 -49.7985 63° Northeast 584 672 34,000  Level FlightAware Transoceanic
11:49PM 44.1449 -49.5964 64° Northeast 584 672 34,000  Level FlightAware Transoceanic
11:50PM 44.2168 -49.3939 64° Northeast 584 672 34,000  Level FlightAware Transoceanic
11:51PM 44.2883 -49.1909 64° Northeast 584 672 34,000  Level FlightAware Transoceanic
11:52PM 44.3595 -48.9874 64° Northeast 584 672 34,000  Level FlightAware Transoceanic
11:53PM 44.4395 -48.7567 64° Northeast 590 679 34,000  Level FlightAware Transoceanic
11:54PM 44.5115 -48.5477 64° Northeast 590 679 34,000  Level FlightAware Transoceanic
11:55PM 44.5830 -48.3382 64° Northeast 590 679 34,000  Level FlightAware Transoceanic
11:56PM 44.6542 -48.1281 65° Northeast 590 679 34,000  Level FlightAware Transoceanic
11:57PM 44.7249 -47.9175 65° Northeast 590 679 34,000  Level FlightAware Transoceanic
11:58PM 44.7953 -47.7065 65° Northeast 590 679 34,000  Level FlightAware Transoceanic
11:59PM 44.8653 -47.4949 65° Northeast 590 679 34,000  Level FlightAware Transoceanic
12:00AM 44.9350 -47.2828 65° Northeast 590 679 34,000  Level FlightAware Transoceanic
12:01AM 45.0042 -47.0702 65° Northeast 590 679 34,000  Level FlightAware Transoceanic
12:02AM 45.0730 -46.8570 66° East 590 679 34,000  Level FlightAware Transoceanic
12:03AM 45.1414 -46.6434 66° East 590 679 34,000  Level FlightAware Transoceanic
12:04AM 45.2095 -46.4292 66° East 590 679 34,000  Level FlightAware Transoceanic
12:05AM 45.2771 -46.2146 66° East 590 679 34,000  Level FlightAware Transoceanic
12:06AM 45.3443 -45.9994 66° East 590 679 34,000  Level FlightAware Transoceanic
12:07AM 45.4111 -45.7837 66° East 590 679 34,000  Level FlightAware Transoceanic
12:08AM 45.4775 -45.5675 66° East 590 679 34,000  Level FlightAware Transoceanic
12:09AM 45.5435 -45.3508 67° East 590 679 34,000  Level FlightAware Transoceanic
12:10AM 45.6091 -45.1336 67° East 590 679 34,000  Level FlightAware Transoceanic
12:11AM 45.6743 -44.9159 67° East 590 679 34,000  Level FlightAware Transoceanic
12:12AM 45.7391 -44.6976 67° East 590 679 34,000  Level FlightAware Transoceanic
12:13AM 45.8034 -44.4789 67° East 590 679 34,000  Level FlightAware Transoceanic
12:14AM 45.8673 -44.2597 67° East 590 679 34,000  Level FlightAware Transoceanic
12:15AM 45.9309 -44.0399 68° East 590 679 34,000  Level FlightAware Transoceanic
12:16AM 45.9939 -43.8197 68° East 590 679 34,000  Level FlightAware Transoceanic
12:17AM 46.0566 -43.5989 68° East 590 679 34,000  Level FlightAware Transoceanic
12:18AM 46.1188 -43.3777 68° East 590 679 34,000  Level FlightAware Transoceanic
12:19AM 46.1806 -43.1559 68° East 590 679 34,000  Level FlightAware Transoceanic
12:20AM 46.2420 -42.9337 68° East 590 679 34,000  Level FlightAware Transoceanic
12:21AM 46.3030 -42.7110 68° East 590 679 34,000  Level FlightAware Transoceanic
12:22AM 46.3635 -42.4877 69° East 590 679 34,000  Level FlightAware Transoceanic
12:23AM 46.4236 -42.2640 69° East 590 679 34,000  Level FlightAware Transoceanic
12:24AM 46.4832 -42.0398 69° East 590 679 34,000  Level FlightAware Transoceanic
12:25AM 46.5424 -41.8151 69° East 590 679 34,000  Level FlightAware Transoceanic
12:26AM 46.6012 -41.5899 69° East 590 679 34,000  Level FlightAware Transoceanic
12:27AM 46.6595 -41.3642 69° East 590 679 34,000  Level FlightAware Transoceanic
12:28AM 46.7174 -41.1381 70° East 590 679 34,000  Level FlightAware Transoceanic
12:29AM 46.7748 -40.9114 70° East 590 679 34,000  Level FlightAware Transoceanic
12:30AM 46.8318 -40.6843 70° East 590 679 34,000  Level FlightAware Transoceanic
12:31AM 46.8883 -40.4567 70° East 590 679 34,000  Level FlightAware Transoceanic
12:32AM 46.9444 -40.2286 70° East 590 679 34,000  Level FlightAware Transoceanic
12:33AM 47.0000 -40.0000 70° East 590 679 34,000  Level FlightAware Transoceanic
12:34AM 47.0525 -39.7912 70° East 590 679 34,000  Level FlightAware Transoceanic
12:35AM 47.1046 -39.5820 70° East 590 679 34,000  Level FlightAware Transoceanic
12:36AM 47.1563 -39.3724 70° East 590 679 34,000  Level FlightAware Transoceanic
12:37AM 47.2077 -39.1624 70° East 590 679 34,000  Level FlightAware Transoceanic
12:38AM 47.2586 -38.9520 70° East 590 679 34,000  Level FlightAware Transoceanic
12:39AM 47.3092 -38.7412 71° East 590 679 34,000  Level FlightAware Transoceanic
12:40AM 47.3594 -38.5300 71° East 590 679 34,000  Level FlightAware Transoceanic
12:41AM 47.4092 -38.3183 71° East 590 679 34,000  Level FlightAware Transoceanic
12:42AM 47.4586 -38.1063 71° East 590 679 34,000  Level FlightAware Transoceanic
12:43AM 47.5076 -37.8939 71° East 590 679 34,000  Level FlightAware Transoceanic
12:44AM 47.5562 -37.6811 71° East 590 679 34,000  Level FlightAware Transoceanic
12:45AM 47.6045 -37.4679 72° East 590 679 34,000  Level FlightAware Transoceanic
12:46AM 47.6523 -37.2543 72° East 590 679 34,000  Level FlightAware Transoceanic
12:47AM 47.6997 -37.0403 72° East 590 679 34,000  Level FlightAware Transoceanic
12:48AM 47.7468 -36.8259 72° East 590 679 34,000  Level FlightAware Transoceanic
12:49AM 47.7934 -36.6112 72° East 590 679 34,000  Level FlightAware Transoceanic
12:50AM 47.8396 -36.3960 72° East 590 679 34,000  Level FlightAware Transoceanic
12:51AM 47.8855 -36.1805 72° East 590 679 34,000  Level FlightAware Transoceanic
12:52AM 47.9309 -35.9646 73° East 590 679 34,000  Level FlightAware Transoceanic
12:53AM 47.9759 -35.7483 73° East 590 679 34,000  Level FlightAware Transoceanic
12:54AM 48.0205 -35.5316 73° East 590 679 34,000  Level FlightAware Transoceanic
12:55AM 48.0648 -35.3146 73° East 590 679 34,000  Level FlightAware Transoceanic
12:56AM 48.1086 -35.0972 73° East 590 679 34,000  Level FlightAware Transoceanic
12:57AM 48.1520 -34.8794 73° East 590 679 34,000  Level FlightAware Transoceanic
12:58AM 48.1949 -34.6613 74° East 590 679 34,000  Level FlightAware Transoceanic
12:59AM 48.2375 -34.4427 74° East 590 679 34,000  Level FlightAware Transoceanic
01:00AM 48.2796 -34.2239 74° East 590 679 34,000  Level FlightAware Transoceanic
01:01AM 48.3214 -34.0047 74° East 590 679 34,000  Level FlightAware Transoceanic
01:02AM 48.3627 -33.7851 74° East 590 679 34,000  Level FlightAware Transoceanic
01:03AM 48.4036 -33.5651 74° East 590 679 34,000  Level FlightAware Transoceanic
01:04AM 48.4441 -33.3448 75° East 590 679 34,000  Level FlightAware Transoceanic
01:05AM 48.4841 -33.1242 75° East 590 679 34,000  Level FlightAware Transoceanic
01:06AM 48.5238 -32.9032 75° East 590 679 34,000  Level FlightAware Transoceanic
01:07AM 48.5630 -32.6819 75° East 590 679 34,000  Level FlightAware Transoceanic
01:08AM 48.6017 -32.4602 75° East 590 679 34,000  Level FlightAware Transoceanic
01:09AM 48.6401 -32.2382 75° East 590 679 34,000  Level FlightAware Transoceanic
01:10AM 48.6780 -32.0158 76° East 590 679 34,000  Level FlightAware Transoceanic
01:11AM 48.7155 -31.7931 76° East 590 679 34,000  Level FlightAware Transoceanic
01:12AM 48.7526 -31.5701 76° East 590 679 34,000  Level FlightAware Transoceanic
01:13AM 48.7893 -31.3468 76° East 590 679 34,000  Level FlightAware Transoceanic
01:14AM 48.8255 -31.1231 76° East 590 679 34,000  Level FlightAware Transoceanic
01:15AM 48.8613 -30.8991 76° East 590 679 34,000  Level FlightAware Transoceanic
01:16AM 48.8966 -30.6748 77° East 590 679 34,000  Level FlightAware Transoceanic
01:17AM 48.9315 -30.4502 77° East 590 679 34,000  Level FlightAware Transoceanic
01:18AM 48.9660 -30.2252 77° East 590 679 34,000  Level FlightAware Transoceanic
01:19AM 48.9807 -30.0023 84° East  Level Estimated
01:20AM 48.9951 -29.7793 84° East  Level Estimated
01:21AM 49.0090 -29.5561 84° East  Level Estimated
01:22AM 49.0224 -29.3332 85° East  Level Estimated
01:23AM 49.0354 -29.1102 85° East  Level Estimated
01:24AM 49.0480 -28.8874 85° East  Level Estimated
01:25AM 49.0601 -28.6646 85° East  Level Estimated
01:26AM 49.0718 -28.4416 85° East  Level Estimated
01:27AM 49.0831 -28.2185 86° East  Level Estimated
01:28AM 49.0939 -27.9953 86° East  Level Estimated
01:29AM 49.1043 -27.7720 86° East  Level Estimated
01:30AM 49.1143 -27.5487 86° East  Level Estimated
01:31AM 49.1239 -27.3252 86° East  Level Estimated
01:32AM 49.1330 -27.1017 86° East  Level Estimated
01:33AM 49.1417 -26.8780 87° East  Level Estimated
01:34AM 49.1499 -26.6543 87° East  Level Estimated
01:35AM 49.1577 -26.4306 87° East  Level Estimated
01:36AM 49.1651 -26.2067 87° East  Level Estimated
01:37AM 49.1721 -25.9828 87° East  Level Estimated
01:38AM 49.1786 -25.7589 87° East  Level Estimated
01:39AM 49.1847 -25.5348 88° East  Level Estimated
01:40AM 49.1904 -25.3108 88° East  Level Estimated
01:41AM 49.1956 -25.0867 88° East  Level Estimated
01:42AM 49.2004 -24.8625 88° East  Level Estimated
01:43AM 49.2048 -24.6383 88° East  Level Estimated
01:44AM 49.2087 -24.4140 88° East  Level Estimated
01:45AM 49.2122 -24.1898 89° East  Level Estimated
01:46AM 49.2152 -23.9654 89° East  Level Estimated
01:47AM 49.2178 -23.7411 89° East  Level Estimated
01:48AM 49.2200 -23.5167 89° East  Level Estimated
01:49AM 49.2218 -23.2924 89° East  Level Estimated
01:50AM 49.2231 -23.0680 89° East  Level Estimated
01:51AM 49.2240 -22.8436 90° East  Level Estimated
01:52AM 49.2244 -22.6192 90° East  Level Estimated
01:53AM 49.2244 -22.3948 90° East  Level Estimated
01:54AM 49.2240 -22.1703 90° East  Level Estimated
01:55AM 49.2231 -21.9459 90° East  Level Estimated
01:56AM 49.2219 -21.7215 90° East  Level Estimated
01:57AM 49.2201 -21.4972 91° East  Level Estimated
01:58AM 49.2180 -21.2728 91° East  Level Estimated
01:59AM 49.2154 -21.0485 91° East  Level Estimated
02:00AM 49.2123 -20.8242 91° East  Level Estimated
02:01AM 49.2089 -20.5999 91° East  Level Estimated
02:02AM 49.2050 -20.3756 91° East  Level Estimated
02:03AM 49.2007 -20.1514 92° East  Level Estimated
02:04AM 49.1959 -19.9272 92° East  Level Estimated
02:05AM 49.1907 -19.7031 92° East  Level Estimated
02:06AM 49.1851 -19.4790 92° East  Level Estimated
02:07AM 49.1790 -19.2550 92° East  Level Estimated
02:08AM 49.1725 -19.0310 92° East  Level Estimated
02:09AM 49.1656 -18.8071 93° East  Level Estimated
02:10AM 49.1582 -18.5829 93° East  Level Estimated
02:11AM 49.1504 -18.3587 93° East  Level Estimated
02:12AM 49.1421 -18.1347 93° East  Level Estimated
02:13AM 49.1334 -17.9107 93° East  Level Estimated
02:14AM 49.1243 -17.6867 93° East  Level Estimated
02:15AM 49.1148 -17.4629 94° East  Level Estimated
02:16AM 49.1048 -17.2391 94° East  Level Estimated
02:17AM 49.0944 -17.0155 94° East  Level Estimated
02:18AM 49.0835 -16.7919 94° East  Level Estimated
02:19AM 49.0723 -16.5684 94° East  Level Estimated
02:20AM 49.0606 -16.3451 94° East  Level Estimated
02:21AM 49.0484 -16.1218 95° East  Level Estimated
02:22AM 49.0359 -15.8987 95° East  Level Estimated
02:23AM 49.0229 -15.6756 95° East  Level Estimated
02:24AM 49.0094 -15.4527 95° East  Level Estimated
02:25AM 48.9956 -15.2299 95° East  Level Estimated
02:26AM 48.9813 -15.0072 95° East  Level Estimated
02:27AM 48.9666 -14.7847 96° East  Level Estimated
02:28AM 48.9514 -14.5623 96° East  Level Estimated
02:29AM 48.9359 -14.3400 96° East  Level Estimated
02:30AM 48.9199 -14.1179 96° East  Level Estimated
02:31AM 48.9035 -13.8959 96° East  Level Estimated
02:32AM 48.8866 -13.6741 97° East  Level Estimated
02:33AM 48.8693 -13.4524 97° East  Level Estimated
02:34AM 48.8516 -13.2309 97° East  Level Estimated
02:35AM 48.8335 -13.0095 97° East  Level Estimated
02:36AM 48.8150 -12.7883 97° East  Level Estimated
02:37AM 48.7960 -12.5673 97° East  Level Estimated
02:38AM 48.7766 -12.3464 98° East  Level Estimated
02:39AM 48.7568 -12.1257 98° East  Level Estimated
02:40AM 48.7366 -11.9052 98° East  Level Estimated
02:41AM 48.7159 -11.6848 98° East  Level Estimated
02:42AM 48.6949 -11.4647 98° East  Level Estimated
02:43AM 48.6734 -11.2447 98° East  Level Estimated
02:44AM 48.6515 -11.0249 99° East  Level Estimated
02:45AM 48.6291 -10.8053 99° East  Level Estimated
02:46AM 48.6064 -10.5859 99° East  Level Estimated
02:47AM 48.5832 -10.3667 99° East  Level Estimated
02:48AM 48.5597 -10.1477 99° East  Level Estimated
02:49AM 48.5357 -9.9289 99° East  Level Estimated
02:50AM 48.5112 -9.7103 99° East  Level Estimated
02:51AM 48.4864 -9.4920 100° East  Level Estimated
02:52AM 48.4612 -9.2738 100° East  Level Estimated
02:52AM 50.0500 -10.8470 100° East 491 565 34,900  Level FlightAware
02:53AM 48.4356 -9.0559 100° East  Level Estimated
02:53AM 50.0490 -10.6730 90° East 493 567 34,900  Level FlightAware
02:53AM 50.0490 -10.5640 90° East 493 567 34,900  Level FlightAware
02:54AM 50.0470 -10.4110 91° East 496 571 34,900  Level FlightAware
02:54AM 50.0450 -10.2750 91° East 499 574 34,900  Level FlightAware
02:55AM 50.0440 -10.1500 91° East 500 575 34,900  Level FlightAware
02:56AM 50.0420 -10.0240 91° East 500 575 34,900  Level FlightAware
02:56AM 50.0410 -9.9060 91° East 498 573 34,900  Level FlightAware
02:57AM 50.0390 -9.7700 91° East 497 572 34,900  Level FlightAware
02:57AM 50.0370 -9.6530 91° East 496 571 34,900  Level FlightAware
02:58AM 50.0350 -9.5320 91° East 496 571 34,900  Level FlightAware
02:59AM 50.0330 -9.4080 91° East 496 571 34,900  Level FlightAware
02:59AM 50.0310 -9.2760 91° East 496 571 34,900  Level FlightAware
03:00AM 50.0290 -9.1650 92° East 496 571 34,900  Level FlightAware
03:00AM 50.0260 -9.0340 92° East 495 570 34,900  Level FlightAware
03:01AM 50.0230 -8.8990 92° East 495 570 34,900  Level FlightAware
03:02AM 50.0200 -8.7710 92° East 496 571 34,900  Level FlightAware
03:02AM 50.0176 -8.6555 92° East 488 562 34,900  Level FlightAware UK
03:02AM 50.0180 -8.6570 92° East 497 572 34,900  Level FlightAware
03:03AM 50.0142 -8.5482 92° East 490 564 34,900  Level FlightAware UK
03:03AM 50.0150 -8.5430 92° East 498 573 34,900  Level FlightAware
03:03AM 50.0110 -8.4070 93° East 498 573 34,900  Level FlightAware
03:04AM 50.0080 -8.2720 92° East 497 572 34,900  Level FlightAware
03:04AM 50.0050 -8.1580 92° East 496 571 34,900  Level FlightAware
03:05AM 50.0015 -8.0130 92° East 492 566 34,900  Level FlightAware UK
03:05AM 50.0050 -7.9860 92° East 501 577 34,900  Level FlightAware
03:06AM 50.0180 -7.8760 80° East 504 580 34,900  Level FlightAware
03:06AM 50.0410 -7.7390 75° East 505 581 34,900  Level FlightAware
03:07AM 50.0610 -7.6300 74° East 506 582 34,900  Level FlightAware
03:07AM 50.0830 -7.5030 74° East 509 586 34,900  Level FlightAware
03:08AM 50.0874 -7.4838 74° East 488 562 34,900  Level FlightAware UK
03:08AM 50.1053 -7.3773 74° East 488 562 34,900  Level FlightAware UK
03:08AM 50.1050 -7.3760 74° East 511 588 34,900  Level FlightAware
03:09AM 50.1270 -7.2470 75° East 512 589 34,900  Level FlightAware
03:09AM 50.1510 -7.1080 75° East 514 592 34,900  Level FlightAware
03:10AM 50.1680 -7.0000 76° East 516 594 34,900  Level FlightAware
03:10AM 50.1890 -6.8740 75° East 518 596 34,900  Level FlightAware
03:11AM 50.2131 -6.7309 75° East 490 564 34,900  Level FlightAware UK
03:11AM 50.2130 -6.7290 75° East 520 598 34,900  Level FlightAware
03:12AM 50.2340 -6.5940 76° East 521 600 34,900  Level FlightAware
03:12AM 50.2530 -6.4770 76° East 523 602 34,900  Level FlightAware
03:13AM 50.2740 -6.3460 76° East 524 603 34,900  Level FlightAware
03:13AM 50.2923 -6.2243 76° East 494 568 34,900  Level FlightAware UK
03:13AM 50.2950 -6.2170 76° East 524 603 34,900  Level FlightAware
03:14AM 50.3140 -6.1000 76° East 523 602 34,900  Level FlightAware
03:14AM 50.3139 -6.0921 76° East 496 571 34,900  Level FlightAware UK
03:14AM 50.3310 -5.9819 76° East 494 568 34,900  Level FlightAware UK
03:15AM 50.3350 -5.9640 76° East 522 601 34,900  Level FlightAware
03:15AM 50.3550 -5.8320 77° East 522 601 34,900  Level FlightAware
03:16AM 50.3274 -6.0117 257° West 524 603 34,900  Level FlightAware ADS-B (EGCW)
03:16AM 50.3920 -5.5970 76° East 523 602 34,900  Level FlightAware
03:17AM 50.4041 -5.5155 77° East 523 602 34,900  Level FlightAware ADS-B (EGCW)
03:17AM 50.4320 -5.3320 77° East 522 601 34,900  Level FlightAware
03:18AM 50.4500 -5.2100 77° East 522 601 34,900  Level FlightAware
03:18AM 50.4663 -5.0997 77° East 522 601 34,900  Level FlightAware ADS-B (EGCW)
03:19AM 50.4890 -4.9453 77° East 520 598 34,900  Level FlightAware ADS-B (EGCW)
03:20AM 50.5059 -4.8315 77° East 520 598 34,900  Level FlightAware ADS-B (EGCW)
03:20AM 50.5235 -4.7009 77° East 488 562 34,900  Level FlightAware UK
03:20AM 50.5246 -4.7027 77° East 520 598 34,900  Level FlightAware ADS-B (EGCW)
03:21AM 50.5246 -4.7027 77° East 522 601 34,900  Level FlightAware ADS-B (EGCW)
03:21AM 50.5518 -4.5111 77° East 519 597 34,900  Level FlightAware ADS-B (EGCW)
03:22AM 50.5692 -4.3887 77° East 523 602 34,900  Level FlightAware ADS-B (EGCW)
03:22AM 50.5852 -4.2735 78° East 524 603 34,900  Level FlightAware ADS-B (EGCW)
03:23AM 50.6016 -4.1545 78° East 525 604 34,900  Level FlightAware ADS-B (EGCW)
03:23AM 50.6200 -4.0200 78° East 525 604 34,900  Level FlightAware
03:23AM 50.6149 -4.0612 259° West 527 606 34,900  Level FlightAware ADS-B (EGCW)
03:24AM 50.6325 -3.9304 78° East 527 606 34,900  Level FlightAware ADS-B (EGDM)
03:24AM 50.6540 -3.7770 78° East 528 608 34,900  Level FlightAware
03:24AM 50.6552 -3.7630 78° East 494 568 34,900  Level FlightAware UK
03:25AM 50.6426 -3.8591 258° West 529 609 34,900  Level FlightAware ADS-B (EGCW)
03:25AM 50.6726 -3.6296 78° East 528 608 34,900 480 Level FlightAware ADS-B (EGDM)
03:26AM 50.6823 -3.5032 83° East 531 611 35,400 1,020 Climbing FlightAware ADS-B (EGCW)
03:26AM 50.6904 -3.3882 84° East 530 610 36,000 1,200 Climbing FlightAware ADS-B (EGCW)
03:27AM 50.6997 -3.2583 84° East 528 608 36,700 840 Climbing FlightAware ADS-B
03:27AM 50.7079 -3.1474 83° East 528 608 36,900 300 Climbing FlightAware ADS-B
03:27AM 50.7098 -3.1209 84° East 528 608 36,900  Level FlightAware ADS-B (EGCW)
03:28AM 50.7266 -3.0044 77° East 529 609 36,900  Level FlightAware ADS-B
03:28AM 50.7444 -2.8885 76° East 526 605 36,900  Level FlightAware ADS-B
03:29AM 50.7566 -2.8098 76° East 528 608 36,900  Level FlightAware ADS-B (EGCW)
03:29AM 50.7714 -2.7087 77° East 527 606 36,900  Level FlightAware ADS-B
03:30AM 50.7882 -2.5921 77° East 529 609 36,900  Level FlightAware ADS-B
03:30AM 50.7909 -2.5733 77° East 530 610 36,900  Level FlightAware ADS-B (EGCW)
03:30AM 50.8091 -2.4452 77° East 530 610 36,900  Level FlightAware ADS-B (EGCW)
03:31AM 50.8261 -2.3205 78° East 531 611 36,900  Level FlightAware ADS-B (EGDM)
03:31AM 50.8421 -2.2069 77° East 532 612 36,900  Level FlightAware ADS-B
03:32AM 50.8618 -2.0587 78° East 533 613 36,900  Level FlightAware ADS-B (EGDM)
03:32AM 50.8774 -1.9408 78° East 532 612 36,900  Level FlightAware ADS-B
03:33AM 50.8968 -1.7957 78° East 533 613 36,900  Level FlightAware ADS-B (EGDM)
03:33AM 50.9010 -1.7654 78° East 532 612 36,900  Level FlightAware ADS-B
03:34AM 50.9202 -1.6204 78° East 534 615 36,900  Level FlightAware ADS-B (EGDM)
03:34AM 50.9352 -1.5017 79° East 535 616 36,900  Level FlightAware ADS-B (EGDM)
03:35AM 50.9488 -1.3821 80° East 535 616 36,900  Level FlightAware ADS-B (EGDM)
03:35AM 50.9582 -1.2696 82° East 536 617 36,900  Level FlightAware ADS-B (EGDM)
03:36AM 50.9670 -1.1327 84° East 538 619 36,900  Level FlightAware ADS-B (EGDM)
03:37AM 50.9745 -1.0154 84° East 539 620 36,900  Level FlightAware ADS-B (EGDM)
03:37AM 50.9841 -0.8662 84° East 539 620 36,900  Level FlightAware ADS-B
03:38AM 50.9920 -0.7406 84° East 541 623 36,900  Level FlightAware ADS-B (EGDM)
03:38AM 50.9993 -0.6222 84° East 542 624 36,900  Level FlightAware ADS-B (EGDM)
03:39AM 51.0072 -0.4934 84° East 490 564 36,900  Level FlightAware UK
03:39AM 51.0108 -0.4329 84° East 541 623 36,900  Level FlightAware ADS-B (EGDM)
03:40AM 51.0185 -0.3023 85° East 542 624 36,900  Level FlightAware ADS-B (EGDM)
03:40AM 51.0260 -0.1756 85° East 543 625 36,900  Level FlightAware ADS-B
03:41AM 51.0328 -0.0569 85° East 544 626 36,900  Level FlightAware ADS-B (EGDM)
03:41AM 51.0421 0.1102 85° East 545 627 36,900  Level FlightAware ADS-B
03:42AM 51.0492 0.2375 85° East 545 627 36,900  Level FlightAware ADS-B
03:42AM 51.0534 0.3130 85° East 546 628 36,900  Level FlightAware ADS-B (EGDM)
03:42AM 51.0553 0.3492 85° East 546 628 36,900  Level FlightAware ADS-B (EGDM)
03:43AM 51.0611 0.4607 85° East 546 628 36,900  Level FlightAware ADS-B
03:43AM 51.0684 0.6039 85° East 545 627 36,900  Level FlightAware ADS-B (EGMD / LYX)
03:44AM 51.0745 0.7235 85° East 545 627 36,900  Level FlightAware ADS-B (EGMD / LYX)
03:44AM 51.0807 0.8514 86° East 546 628 36,900  Level FlightAware ADS-B (EGMD / LYX)
03:45AM 51.0823 0.8834 85° East 547 629 36,900  Level FlightAware ADS-B
03:45AM 51.0903 1.0513 86° East 547 629 36,900  Level FlightAware ADS-B (EGMD / LYX)
03:46AM 51.0957 1.1674 86° East 547 629 36,900  Level FlightAware ADS-B (EGMD / LYX)
03:46AM 51.0978 1.2116 86° East 547 629 36,900  Level FlightAware ADS-B (EGMD / LYX)
03:46AM 51.1033 1.3357 86° East 547 629 36,900  Level FlightAware ADS-B (EGMD / LYX)
03:47AM 51.1090 1.4641 86° East 547 629 36,900  Level FlightAware ADS-B (EGMD / LYX)
03:47AM 51.1142 1.5843 86° East 548 631 36,900  Level FlightAware ADS-B (EGMD / LYX)
03:48AM 51.1191 1.7046 86° East 548 631 36,900  Level FlightAware ADS-B (EGMD / LYX)
03:48AM 51.1206 1.7773 88° East 550 633 36,900 120 Level FlightAware ADS-B (EGMD / LYX)
03:49AM 51.1140 1.8488 98° East 552 635 37,000  Climbing FlightAware ADS-B
03:49AM 51.0997 1.9272 106° East 551 634 36,900 -120 Descending FlightAware ADS-B (EGMD / LYX)
03:49AM 51.0695 2.0436 112° Southeast 553 636 36,900  Level FlightAware ADS-B
03:50AM 51.0307 2.1711 116° Southeast 553 636 36,900  Level FlightAware ADS-B
03:51AM 50.9943 2.2911 116° Southeast 553 636 36,900  Level FlightAware ADS-B
03:51AM 50.9588 2.4080 116° Southeast 553 636 36,900  Level FlightAware ADS-B
03:52AM 50.9072 2.5761 116° Southeast 554 638 36,900  Level FlightAware ADS-B
03:52AM 50.8757 2.6820 115° Southeast 555 639 36,900  Level FlightAware ADS-B
03:53AM 50.8380 2.8079 115° Southeast 488 562 36,900  Level FlightAware UK
03:53AM 50.8160 2.8800 115° Southeast 555 639 36,900  Level FlightAware
03:54AM 50.7800 2.9970 116° Southeast 556 640 36,900  Level FlightAware
03:54AM 50.7370 3.1390 116° Southeast 556 640 36,900  Level FlightAware
03:55AM 50.6960 3.2750 115° Southeast 557 641 36,900  Level FlightAware
03:55AM 50.6630 3.3810 116° Southeast 558 642 36,900  Level FlightAware
03:56AM 50.6250 3.5050 116° Southeast 558 642 36,900  Level FlightAware
03:57AM 50.5820 3.6400 117° Southeast 559 643 36,900  Level FlightAware
03:57AM 50.5450 3.7600 116° Southeast 559 643 36,900  Level FlightAware
03:58AM 50.5090 3.8760 116° Southeast 559 643 36,900  Level FlightAware
03:58AM 50.4620 4.0250 116° Southeast 559 643 36,900  Level FlightAware
03:59AM 50.4290 4.1270 117° Southeast 559 643 36,900  Level FlightAware
04:00AM 50.3770 4.2900 117° Southeast 559 643 36,900  Level FlightAware
04:00AM 50.3390 4.4090 117° Southeast 559 643 36,900  Level FlightAware
04:01AM 50.2980 4.5350 117° Southeast 559 643 36,900  Level FlightAware
04:01AM 50.2625 4.6402 117° Southeast 1 1 36,900  Level FlightAware UK
04:01AM 50.2580 4.6620 117° Southeast 559 643 36,900  Level FlightAware
04:02AM 50.2140 4.7940 117° Southeast 559 643 36,900  Level FlightAware
04:02AM 50.1790 4.9020 117° Southeast 560 644 36,900  Level FlightAware
04:03AM 50.1350 5.0350 117° Southeast 560 644 36,900  Level FlightAware
04:04AM 50.0960 5.1530 117° Southeast 561 646 36,900  Level FlightAware
04:04AM 50.0520 5.2820 118° Southeast 561 646 36,900  Level FlightAware
04:05AM 50.0050 5.4210 118° Southeast 562 647 36,900  Level FlightAware
04:05AM 49.9650 5.5380 118° Southeast 562 647 36,900  Level FlightAware
04:06AM 49.9210 5.6620 119° Southeast 562 647 36,900  Level FlightAware
04:07AM 49.8760 5.7930 118° Southeast 562 647 36,900  Level FlightAware
04:07AM 49.8320 5.9210 118° Southeast 562 647 36,900  Level FlightAware
04:08AM 49.7950 6.0270 118° Southeast 562 647 36,900  Level FlightAware
04:08AM 49.7490 6.1580 118° Southeast 563 648 36,900  Level FlightAware
04:09AM 49.7060 6.2820 118° Southeast 564 649 36,900  Level FlightAware
04:09AM 49.6700 6.3890 117° Southeast 564 649 36,900  Level FlightAware
04:10AM 49.6220 6.5240 119° Southeast 565 650 36,900  Level FlightAware
04:11AM 49.5660 6.6870 118° Southeast 565 650 36,900  Level FlightAware
04:11AM 49.5170 6.8280 118° Southeast 565 650 36,900  Level FlightAware
04:12AM 49.4750 6.9450 119° Southeast 565 650 36,900  Level FlightAware
04:13AM 49.4320 7.0680 118° Southeast 566 651 36,900  Level FlightAware
04:13AM 49.3840 7.2020 119° Southeast 566 651 36,900  Level FlightAware
04:14AM 49.3420 7.3180 119° Southeast 567 652 36,900  Level FlightAware
04:14AM 49.2960 7.4440 119° Southeast 567 652 36,900  Level FlightAware
04:15AM 49.2490 7.5740 119° Southeast 568 654 36,900  Level FlightAware
04:16AM 49.2070 7.6900 119° Southeast 568 654 36,900  Level FlightAware
04:16AM 49.1660 7.8020 119° Southeast 568 654 36,900  Level FlightAware
04:17AM 49.1150 7.9420 119° Southeast 569 655 36,900  Level FlightAware
04:17AM 49.0700 8.0640 119° Southeast 569 655 36,900  Level FlightAware
04:18AM 49.0280 8.1760 120° Southeast 569 655 36,900 60 Level FlightAware
04:18AM 48.9710 8.2910 127° Southeast 570 656 37,000  Climbing FlightAware
04:19AM 48.9110 8.3960 131° Southeast 571 657 36,900 -120 Descending FlightAware
04:20AM 48.8500 8.5010 131° Southeast 570 656 36,900  Level FlightAware
04:20AM 48.7880 8.6050 132° Southeast 571 657 36,900  Level FlightAware
04:21AM 48.7330 8.6920 134° Southeast 570 656 36,900  Level FlightAware
04:21AM 48.6640 8.8060 132° Southeast 571 657 36,900  Level FlightAware
04:22AM 48.5960 8.9140 134° Southeast 571 657 36,900  Level FlightAware
04:23AM 48.5330 9.0160 133° Southeast 571 657 36,900  Level FlightAware
04:23AM 48.4750 9.1120 132° Southeast 571 657 36,900  Level FlightAware
04:24AM 48.4100 9.2130 134° Southeast 571 657 36,900  Level FlightAware
04:24AM 48.3520 9.3080 133° Southeast 571 657 36,900  Level FlightAware
04:25AM 48.2710 9.4120 139° Southeast 570 656 36,900  Level FlightAware
04:26AM 48.1990 9.4920 143° Southeast 568 654 36,900  Level FlightAware
04:26AM 48.1340 9.5630 144° Southeast 569 655 36,900  Level FlightAware
04:27AM 48.0520 9.6510 144° Southeast 569 655 36,900  Level FlightAware
04:27AM 47.9780 9.7310 144° Southeast 569 655 36,900  Level FlightAware
04:28AM 47.8979 9.8162 144° Southeast 563 648 36,900  Level FlightAware ADS-B (EDDM / MUC)
04:28AM 47.8358 9.8832 144° Southeast 564 649 36,900  Level FlightAware ADS-B (EDDM / MUC)
04:29AM 47.7560 9.9710 144° Southeast 569 655 36,900  Level FlightAware
04:30AM 47.6743 10.0578 144° Southeast 564 649 36,900  Level FlightAware ADS-B (EDDM / MUC)
04:30AM 47.6020 10.1360 144° Southeast 570 656 36,900  Level FlightAware
04:30AM 47.5905 10.1470 147° Southeast 571 657 36,900  Level FlightAware ADS-B (EDDM / MUC)
04:31AM 47.5243 10.2175 144° Southeast 571 657 36,900  Level FlightAware ADS-B (EDDM / MUC)
04:31AM 47.4319 10.3149 145° Southeast 571 657 36,900  Level FlightAware ADS-B (EDDM / MUC)
04:32AM 47.3693 10.3826 144° Southeast 569 655 36,900  Level FlightAware ADS-B (EDDM / MUC)
04:33AM 47.2770 10.4790 145° Southeast 569 655 36,900  Level FlightAware
04:33AM 47.2512 10.5060 145° Southeast 569 655 36,900  Level FlightAware ADS-B (EDDM / MUC)
04:34AM 47.1221 10.6480 143° Southeast 569 655 36,900  Level FlightAware ADS-B (EDDM / MUC)
04:34AM 47.0640 10.7308 136° Southeast 568 654 36,900  Level FlightAware ADS-B (EDDM / MUC)
04:35AM 46.9990 10.8300 134° Southeast 567 652 36,900  Level FlightAware
04:35AM 46.9782 10.8614 134° Southeast 568 654 36,900  Level FlightAware ADS-B (EDDM / MUC)
04:36AM 46.8760 11.0250 132° Southeast 567 652 36,900  Level FlightAware
04:37AM 46.8110 11.1250 134° Southeast 567 652 36,900  Level FlightAware
04:37AM 46.7520 11.2130 134° Southeast 567 652 36,900  Level FlightAware
04:38AM 46.6820 11.3210 133° Southeast 567 652 36,900  Level FlightAware
04:39AM 46.6140 11.4260 133° Southeast 567 652 36,900  Level FlightAware
04:39AM 46.5430 11.5300 135° Southeast 569 655 36,900  Level FlightAware
04:40AM 46.4660 11.6480 133° Southeast 562 647 36,900 60 Level FlightAware
04:41AM 46.4020 11.7440 134° Southeast 563 648 37,000  Climbing FlightAware
04:41AM 46.3500 11.8200 135° Southeast 563 648 36,900 -180 Descending FlightAware
04:41AM 46.3205 11.8641 134° Southeast 562 647 36,900  Level FlightAware ADS-B (EDDM / MUC)
04:42AM 46.2612 11.9539 134° Southeast 562 647 36,900  Level FlightAware ADS-B (EDDM / MUC)
04:43AM 46.1600 12.1029 134° Southeast 562 647 36,900  Level FlightAware ADS-B (EDDM / MUC)
04:43AM 46.0849 12.2139 134° Southeast 562 647 36,900  Level FlightAware ADS-B (EDDM / MUC)
04:44AM 46.0293 12.2949 135° Southeast 562 647 36,900  Level FlightAware ADS-B (EDDM / MUC)
04:45AM 45.9648 12.3916 134° Southeast 561 646 36,900  Level FlightAware ADS-B (EDDM / MUC)
04:45AM 45.8900 12.4990 135° Southeast 560 644 36,900  Level FlightAware
04:46AM 45.8320 12.5840 134° Southeast 558 642 36,900  Level FlightAware
04:46AM 45.7590 12.6910 134° Southeast 559 643 36,900  Level FlightAware
04:47AM 45.7286 12.7358 134° Southeast 559 643 36,900  Level FlightAware ADS-B (EDDM / MUC)
04:47AM 45.6460 12.8520 135° Southeast 558 642 36,900  Level FlightAware
04:48AM 45.5820 12.9450 134° Southeast 558 642 36,900  Level FlightAware
04:49AM 45.5100 13.0510 134° Southeast 557 641 36,900  Level FlightAware
04:49AM 45.4520 13.1540 129° Southeast 562 647 36,900 60 Level FlightAware
04:50AM 45.3980 13.2550 127° Southeast 556 640 37,000  Climbing FlightAware
04:50AM 45.3390 13.3710 126° Southeast 557 641 36,900 -120 Descending FlightAware
04:51AM 45.2940 13.4580 126° Southeast 557 641 36,900  Level FlightAware
04:52AM 45.2540 13.5350 126° Southeast 562 647 36,900  Level FlightAware
04:52AM 45.1940 13.6500 126° Southeast 561 646 36,900  Level FlightAware
04:53AM 45.1310 13.7710 126° Southeast 563 648 36,900 60 Level FlightAware
04:53AM 45.0730 13.8800 127° Southeast 563 648 37,000  Climbing FlightAware
04:54AM 45.0200 13.9800 127° Southeast 564 649 36,900 -120 Descending FlightAware
04:55AM 44.9660 14.0800 127° Southeast 563 648 36,900  Level FlightAware
04:55AM 44.9100 14.1820 128° Southeast 563 648 36,900  Level FlightAware
04:56AM 44.8570 14.2820 127° Southeast 563 648 36,900 60 Level FlightAware
04:56AM 44.8000 14.3900 127° Southeast 563 648 37,000  Climbing FlightAware
04:57AM 44.7400 14.4980 128° Southeast 565 650 36,900 -120 Descending FlightAware
04:58AM 44.6800 14.6090 127° Southeast 561 646 36,900  Level FlightAware
04:58AM 44.6200 14.7200 127° Southeast 561 646 36,900  Level FlightAware
04:59AM 44.5650 14.8220 127° Southeast 563 648 36,900  Level FlightAware
04:59AM 44.4990 14.9410 128° Southeast 563 648 36,900  Level FlightAware
05:00AM 44.4480 15.0340 128° Southeast 564 649 36,900  Level FlightAware
05:01AM 44.3950 15.1300 128° Southeast 552 635 36,900  Level FlightAware
05:01AM 44.3300 15.2470 128° Southeast 565 650 36,900  Level FlightAware
05:02AM 44.2760 15.3450 128° Southeast 566 651 36,900  Level FlightAware
05:02AM 44.2180 15.4470 128° Southeast 572 658 36,900  Level FlightAware
05:03AM 44.1590 15.5520 128° Southeast 572 658 36,900  Level FlightAware
05:04AM 44.1010 15.6560 128° Southeast 573 659 36,900  Level FlightAware
05:04AM 44.0440 15.7550 129° Southeast 573 659 36,900  Level FlightAware
05:05AM 43.9870 15.8560 128° Southeast 573 659 36,900  Level FlightAware
05:05AM 43.9300 15.9570 128° Southeast 573 659 36,900  Level FlightAware
05:06AM 43.8710 16.0600 128° Southeast 572 658 36,900  Level FlightAware
05:06AM 43.8140 16.1600 128° Southeast 570 656 36,900  Level FlightAware
05:07AM 43.7650 16.2460 128° Southeast 570 656 36,900  Level FlightAware
05:08AM 43.6960 16.3630 129° Southeast 570 656 36,900  Level FlightAware
05:08AM 43.6420 16.4570 128° Southeast 570 656 36,900  Level FlightAware
05:09AM 43.5820 16.5620 128° Southeast 570 656 36,900  Level FlightAware
05:09AM 43.5240 16.6610 129° Southeast 569 655 36,900  Level FlightAware
05:10AM 43.4600 16.7710 129° Southeast 569 655 36,900  Level FlightAware
05:11AM 43.4090 16.8580 129° Southeast 568 654 36,900  Level FlightAware
05:11AM 43.3440 16.9670 129° Southeast 567 652 36,900  Level FlightAware
05:12AM 43.2830 17.0710 129° Southeast 566 651 36,900  Level FlightAware
05:12AM 43.2270 17.1650 129° Southeast 566 651 36,900 60 Level FlightAware
05:13AM 43.1700 17.2600 129° Southeast 566 651 37,000  Climbing FlightAware
05:14AM 43.1130 17.3570 129° Southeast 564 649 36,900 -120 Descending FlightAware
05:14AM 43.0540 17.4560 129° Southeast 564 649 36,900  Level FlightAware
05:15AM 42.9950 17.5530 130° Southeast 563 648 36,900  Level FlightAware
05:15AM 42.9410 17.6430 129° Southeast 562 647 36,900  Level FlightAware
05:16AM 42.8730 17.7550 130° Southeast 561 646 36,900  Level FlightAware
05:16AM 42.8240 17.8370 129° Southeast 561 646 36,900  Level FlightAware
05:17AM 42.7640 17.9340 130° Southeast 560 644 36,900  Level FlightAware
05:18AM 42.7050 18.0320 129° Southeast 559 643 36,900  Level FlightAware
05:18AM 42.6520 18.1180 130° Southeast 558 642 36,900  Level FlightAware
05:19AM 42.5590 18.2650 131° Southeast 557 641 36,900  Level FlightAware
05:20AM 42.5000 18.3510 133° Southeast 555 639 36,900  Level FlightAware
05:20AM 42.4290 18.4440 136° Southeast 555 639 36,900  Level FlightAware
05:21AM 42.3540 18.5470 135° Southeast 554 638 36,900  Level FlightAware
05:22AM 42.2710 18.6560 136° Southeast 553 636 36,900  Level FlightAware
05:22AM 42.2090 18.7390 135° Southeast 553 636 36,900  Level FlightAware
05:23AM 42.1390 18.8330 135° Southeast 554 638 36,900  Level FlightAware
05:24AM 42.0650 18.9300 136° Southeast 555 639 36,900  Level FlightAware
05:24AM 42.0140 18.9980 135° Southeast 555 639 36,900  Level FlightAware
05:25AM 41.9500 19.0820 136° Southeast 552 635 36,900  Level FlightAware
05:25AM 41.8890 19.1640 135° Southeast 552 635 36,900  Level FlightAware
05:26AM 41.8290 19.2410 136° Southeast 552 635 36,900  Level FlightAware
05:26AM 41.7540 19.3410 135° Southeast 553 636 36,900  Level FlightAware
05:27AM 41.6910 19.4220 136° Southeast 553 636 36,900  Level FlightAware
05:28AM 41.6290 19.5040 135° Southeast 553 636 36,900  Level FlightAware
05:28AM 41.5660 19.5850 136° Southeast 555 639 36,900  Level FlightAware
05:29AM 41.5020 19.6680 136° Southeast 555 639 36,900  Level FlightAware
05:29AM 41.4320 19.7560 137° Southeast 555 639 36,900  Level FlightAware
05:30AM 41.3700 19.8370 136° Southeast 555 639 36,900  Level FlightAware
05:31AM 41.3050 19.9200 136° Southeast 555 639 36,900  Level FlightAware
05:31AM 41.2440 20.0000 135° Southeast 555 639 36,900  Level FlightAware
05:32AM 41.1740 20.0870 137° Southeast 555 639 36,900  Level FlightAware
05:32AM 41.0990 20.1840 136° Southeast 555 639 36,900  Level FlightAware
05:33AM 41.0380 20.2610 136° Southeast 554 638 36,900  Level FlightAware
05:34AM 40.9720 20.3430 137° Southeast 553 636 36,900  Level FlightAware
05:34AM 40.9020 20.4310 136° Southeast 552 635 36,900  Level FlightAware
05:35AM 40.8420 20.5060 137° Southeast 551 634 36,900  Level FlightAware
05:35AM 40.7700 20.5960 137° Southeast 550 633 36,900 60 Level FlightAware
05:36AM 40.7100 20.6720 136° Southeast 551 634 37,000  Climbing FlightAware
05:36AM 40.6440 20.7530 137° Southeast 550 633 36,900 -120 Descending FlightAware
05:37AM 40.5810 20.8300 137° Southeast 548 631 36,900  Level FlightAware
05:38AM 40.5180 20.9110 136° Southeast 548 631 36,900  Level FlightAware
05:38AM 40.4470 20.9970 137° Southeast 548 631 36,900 60 Level FlightAware
05:39AM 40.3890 21.0620 140° Southeast 548 631 37,000  Climbing FlightAware
05:39AM 40.3150 21.1470 139° Southeast 548 631 36,900 -120 Descending FlightAware
05:40AM 40.2460 21.2260 139° Southeast 547 629 36,900  Level FlightAware
05:40AM 40.1860 21.2930 140° Southeast 547 629 36,900 60 Level FlightAware
05:41AM 40.1170 21.3740 138° Southeast 547 629 37,000  Climbing FlightAware
05:42AM 40.0450 21.4540 140° Southeast 548 631 36,900  Descending FlightAware
05:42AM 39.9870 21.5200 139° Southeast 549 632 37,000  Climbing FlightAware
05:43AM 39.9120 21.6040 139° Southeast 550 633 36,900 -120 Descending FlightAware
05:43AM 39.8460 21.6800 139° Southeast 550 633 36,900 60 Level FlightAware
05:44AM 39.7760 21.7580 139° Southeast 549 632 37,000  Climbing FlightAware
05:45AM 39.7140 21.8270 139° Southeast 548 631 36,900 -120 Descending FlightAware
05:45AM 39.6460 21.9050 139° Southeast 547 629 36,900  Level FlightAware
05:46AM 39.5770 21.9820 139° Southeast 544 626 36,900  Level FlightAware
05:46AM 39.5150 22.0510 139° Southeast 543 625 36,900  Level FlightAware
05:47AM 39.4480 22.1300 138° Southeast 542 624 36,900  Level FlightAware
05:48AM 39.3820 22.2070 138° Southeast 541 623 36,900  Level FlightAware
05:48AM 39.3170 22.2860 137° Southeast 540 621 36,900  Level FlightAware
05:49AM 39.2570 22.3590 137° Southeast 540 621 36,900  Level FlightAware
05:49AM 39.1940 22.4330 138° Southeast 541 623 36,900  Level FlightAware
05:50AM 39.1260 22.5110 138° Southeast 543 625 36,900  Level FlightAware
05:50AM 39.0560 22.5940 137° Southeast 545 627 36,900  Level FlightAware
05:51AM 38.9950 22.6660 137° Southeast 545 627 36,900  Level FlightAware
05:52AM 38.9310 22.7400 138° Southeast 546 628 36,900  Level FlightAware
05:52AM 38.8630 22.8180 138° Southeast 546 628 36,900 60 Level FlightAware
05:53AM 38.7940 22.8990 138° Southeast 546 628 37,000  Climbing FlightAware
05:53AM 38.7340 22.9680 138° Southeast 546 628 36,900 -120 Descending FlightAware
05:54AM 38.6650 23.0460 139° Southeast 547 629 36,900  Level FlightAware
05:55AM 38.5970 23.1260 137° Southeast 546 628 36,900  Level FlightAware
05:55AM 38.5360 23.1950 138° Southeast 546 628 36,900  Level FlightAware
05:56AM 38.4720 23.2690 138° Southeast 545 627 36,900  Level FlightAware
05:56AM 38.4030 23.3480 138° Southeast 545 627 36,900  Level FlightAware
05:57AM 38.3340 23.4270 138° Southeast 544 626 36,900 60 Level FlightAware
05:57AM 38.2730 23.4950 139° Southeast 543 625 37,000  Climbing FlightAware
05:58AM 38.2080 23.5700 138° Southeast 543 625 36,900 -120 Descending FlightAware
05:59AM 38.1380 23.6480 139° Southeast 542 624 36,900  Level FlightAware
05:59AM 38.0740 23.7200 138° Southeast 542 624 36,900  Level FlightAware
06:00AM 38.0080 23.7960 138° Southeast 541 623 36,900  Level FlightAware
06:00AM 37.9480 23.8640 138° Southeast 542 624 36,900  Level FlightAware
06:01AM 37.8740 23.9460 139° Southeast 542 624 36,900  Level FlightAware
06:01AM 37.8170 24.0090 139° Southeast 541 623 36,900  Level FlightAware
06:02AM 37.7470 24.0860 139° Southeast 542 624 36,900  Level FlightAware
06:02AM 37.7090 24.1390 132° Southeast 540 621 36,900 60 Level FlightAware
06:03AM 37.6620 24.2250 125° Southeast 540 621 37,000  Climbing FlightAware
06:04AM 37.6090 24.3280 123° Southeast 540 621 36,900 -120 Descending FlightAware
06:04AM 37.5680 24.4100 122° Southeast 540 621 36,900  Level FlightAware
06:05AM 37.5210 24.5070 121° Southeast 540 621 36,900  Level FlightAware
06:05AM 37.4720 24.6060 122° Southeast 540 621 36,900  Level FlightAware
06:06AM 37.4310 24.6890 122° Southeast 539 620 36,900  Level FlightAware
06:07AM 37.3850 24.7810 122° Southeast 537 618 36,900  Level FlightAware
06:07AM 37.3350 24.8820 122° Southeast 534 615 36,900  Level FlightAware
06:08AM 37.2890 24.9730 122° Southeast 532 612 36,900  Level FlightAware
06:08AM 37.2470 25.0570 122° Southeast 531 611 36,900  Level FlightAware
06:09AM 37.2030 25.1430 123° Southeast 531 611 36,900  Level FlightAware
06:09AM 37.1610 25.2260 122° Southeast 531 611 36,900  Level FlightAware
06:10AM 37.1080 25.3330 122° Southeast 530 610 36,900 60 Level FlightAware
06:11AM 37.0650 25.4190 122° Southeast 530 610 37,000  Climbing FlightAware
06:11AM 37.0200 25.5070 123° Southeast 531 611 36,900 -120 Descending FlightAware
06:12AM 36.9710 25.6030 123° Southeast 530 610 36,900  Level FlightAware
06:12AM 36.9190 25.7060 122° Southeast 529 609 36,900  Level FlightAware
06:13AM 36.8760 25.7880 123° Southeast 528 608 36,900  Level FlightAware
06:14AM 36.8300 25.8810 122° Southeast 527 606 36,900  Level FlightAware
06:14AM 36.7820 25.9730 123° Southeast 527 606 36,900  Level FlightAware
06:15AM 36.7350 26.0650 122° Southeast 527 606 36,900  Level FlightAware
06:15AM 36.6950 26.1420 123° Southeast 529 609 36,900  Level FlightAware
06:16AM 36.6450 26.2370 123° Southeast 529 609 36,900  Level FlightAware
06:16AM 36.5980 26.3290 122° Southeast 529 609 36,900  Level FlightAware
06:17AM 36.5500 26.4210 123° Southeast 529 609 36,900  Level FlightAware
06:18AM 36.5060 26.5050 123° Southeast 530 610 36,900  Level FlightAware
06:18AM 36.4590 26.5940 123° Southeast 530 610 36,900 60 Level FlightAware
06:19AM 36.4100 26.6890 123° Southeast 531 611 37,000  Climbing FlightAware
06:19AM 36.3620 26.7810 123° Southeast 532 612 36,900 -120 Descending FlightAware
06:20AM 36.3190 26.8600 124° Southeast 533 613 36,900  Level FlightAware
06:21AM 36.2420 27.0060 123° Southeast 533 613 36,900  Level FlightAware
06:21AM 36.1970 27.0900 124° Southeast 533 613 36,900  Level FlightAware
06:22AM 36.1540 27.1710 123° Southeast 533 613 36,900  Level FlightAware
06:23AM 36.1060 27.2630 123° Southeast 533 613 36,900  Level FlightAware
06:23AM 36.0450 27.3750 124° Southeast 532 612 36,900  Level FlightAware
06:24AM 35.9960 27.4680 123° Southeast 532 612 36,900  Level FlightAware
06:25AM 35.9440 27.5640 124° Southeast 531 611 36,900  Level FlightAware
06:25AM 35.9000 27.6450 124° Southeast 532 612 36,900  Level FlightAware
06:26AM 35.8510 27.7360 124° Southeast 530 610 36,900  Level FlightAware
06:26AM 35.8020 27.8260 124° Southeast 530 610 36,900 60 Level FlightAware
06:27AM 35.7530 27.9170 124° Southeast 529 609 37,000  Climbing FlightAware
06:27AM 35.7090 27.9960 124° Southeast 529 609 36,900 -120 Descending FlightAware
06:28AM 35.6600 28.0860 124° Southeast 528 608 36,900  Level FlightAware
06:29AM 35.6110 28.1760 124° Southeast 528 608 36,900  Level FlightAware
06:29AM 35.5660 28.2580 124° Southeast 530 610 36,900 60 Level FlightAware
06:30AM 35.5160 28.3480 124° Southeast 532 612 37,000 60 Climbing FlightAware
06:30AM 35.4710 28.4280 125° Southeast 533 613 37,000 -120 Level FlightAware
06:31AM 35.4220 28.5180 124° Southeast 534 615 36,900  Descending FlightAware
06:32AM 35.3710 28.6110 124° Southeast 534 615 37,000  Climbing FlightAware
06:32AM 35.3210 28.7010 124° Southeast 536 617 36,900  Descending FlightAware
06:33AM 35.2770 28.7790 125° Southeast 536 617 37,000  Climbing FlightAware
06:33AM 35.2290 28.8660 124° Southeast 537 618 36,900  Descending FlightAware
06:34AM 35.1740 28.9620 125° Southeast 538 619 37,000  Climbing FlightAware
06:34AM 35.1230 29.0520 125° Southeast 540 621 36,900  Descending FlightAware
06:35AM 35.0780 29.1330 124° Southeast 541 623 37,000  Climbing FlightAware
06:36AM 35.0120 29.2520 124° Southeast 541 623 36,900 -120 Descending FlightAware
06:37AM 34.9460 29.3660 125° Southeast 540 621 36,900  Level FlightAware
06:37AM 34.9010 29.4460 124° Southeast 480 552 36,900  Level FlightAware
06:38AM 34.8290 29.5710 125° Southeast 540 621 36,900  Level FlightAware
06:38AM 34.7920 29.6360 125° Southeast 539 620 36,900 60 Level FlightAware
06:39AM 34.7270 29.7510 124° Southeast 540 621 37,000 60 Climbing FlightAware
06:40AM 34.6860 29.8230 125° Southeast 539 620 37,000 -120 Level FlightAware
06:40AM 34.6360 29.9100 125° Southeast 540 621 36,900 -120 Descending FlightAware
06:41AM 34.5890 29.9900 125° Southeast 540 621 36,900  Level FlightAware
06:42AM 34.5270 30.1160 121° Southeast 545 627 36,900  Level FlightAware
06:43AM 34.4500 30.2770 120° Southeast 553 636 36,900 60 Level FlightAware
06:43AM 34.3970 30.3900 120° Southeast 554 638 37,000 60 Climbing FlightAware
06:44AM 34.3580 30.4710 120° Southeast 554 638 37,000 -120 Level FlightAware
06:44AM 34.3120 30.5650 121° Southeast 552 635 36,900 -120 Descending FlightAware
06:45AM 34.2660 30.6580 121° Southeast 553 636 36,900  Level FlightAware
06:45AM 34.2200 30.7550 120° Southeast 554 638 36,900  Level FlightAware
06:46AM 34.1760 30.8470 120° Southeast 554 638 36,900 60 Level FlightAware
06:47AM 34.1270 30.9460 121° Southeast 555 639 37,000  Climbing FlightAware
06:47AM 34.0820 31.0380 121° Southeast 556 640 36,900 -120 Descending FlightAware
06:48AM 34.0420 31.1210 120° Southeast 556 640 36,900 60 Level FlightAware
06:48AM 34.0000 31.2040 121° Southeast 555 639 37,000  Climbing FlightAware
06:49AM 33.9430 31.3190 121° Southeast 555 639 36,900 -120 Descending FlightAware
06:50AM 33.8970 31.4130 121° Southeast 554 638 36,900  Level FlightAware
06:50AM 33.8500 31.5090 120° Southeast 554 638 36,900  Level FlightAware
06:51AM 33.8030 31.6020 121° Southeast 554 638 36,900  Level FlightAware
06:51AM 33.7510 31.7080 121° Southeast 553 636 36,900  Level FlightAware
06:52AM 33.7030 31.8040 121° Southeast 558 642 36,900  Level FlightAware
06:53AM 33.6560 31.8970 121° Southeast 558 642 36,900 60 Level FlightAware
06:53AM 33.6120 31.9850 121° Southeast 559 643 37,000  Climbing FlightAware
06:54AM 33.5580 32.0930 121° Southeast 558 642 36,900 -120 Descending FlightAware
06:55AM 33.5080 32.1910 121° Southeast 558 642 36,900  Level FlightAware
06:55AM 33.4570 32.2920 121° Southeast 557 641 36,900 60 Level FlightAware
06:56AM 33.4140 32.3790 121° Southeast 556 640 37,000 60 Climbing FlightAware
06:56AM 33.3630 32.4780 122° Southeast 554 638 37,000 -120 Level FlightAware
06:57AM 33.3190 32.5650 121° Southeast 553 636 36,900 -120 Descending FlightAware
06:57AM 33.2700 32.6580 122° Southeast 553 636 36,900 -1,020 Level FlightAware
06:58AM 33.2230 32.7520 121° Southeast 552 635 35,700 -2,760 Descending FlightAware
06:59AM 33.1760 32.8400 123° Southeast 557 641 33,600 -3,900 Descending FlightAware
06:59AM 33.1170 32.9560 121° Southeast 560 644 30,900 -3,660 Descending FlightAware
07:00AM 33.0760 33.0340 122° Southeast 548 631 29,400 -2,880 Descending FlightAware
07:00AM 33.0280 33.1270 122° Southeast 553 636 27,700 -2,700 Descending FlightAware
07:01AM 32.9840 33.2140 121° Southeast 531 611 26,300 -2,100 Descending FlightAware
07:02AM 32.9270 33.3220 122° Southeast 496 571 25,000 -1,620 Descending FlightAware
07:02AM 32.9010 33.3910 114° Southeast 487 560 24,400 -1,320 Descending FlightAware
07:03AM 32.8930 33.4880 96° East 474 545 23,600 -1,140 Descending FlightAware
07:03AM 32.8950 33.5840 89° East 446 513 23,000 -1,080 Descending FlightAware
07:04AM 32.8960 33.6740 89° East 421 484 22,300 -1,140 Descending FlightAware
07:05AM 32.8960 33.7540 90° East 399 459 21,700 -1,380 Descending FlightAware
07:05AM 32.8960 33.8300 90° East 392 451 20,700 -1,800 Descending FlightAware
07:06AM 32.8960 33.9000 90° East 386 444 19,700 -1,500 Descending FlightAware
07:06AM 32.8960 33.9670 90° East 375 432 19,100 -1,320 Descending FlightAware
07:07AM 32.8940 34.0420 92° East 364 419 18,200 -1,620 Descending FlightAware
07:07AM 32.8910 34.0570 103° East 357 411 17,900 -1,800 Descending FlightAware
07:07AM 32.8780 34.0860 118° Southeast 347 399 17,500 -1,500 Descending FlightAware
07:08AM 32.8660 34.1040 128° Southeast 339 390 17,200 -1,500 Descending FlightAware
07:08AM 32.8520 34.1190 138° Southeast 330 380 16,900 -1,620 Descending FlightAware
07:08AM 32.8340 34.1310 151° Southeast 318 366 16,500 -1,620 Descending FlightAware
07:08AM 32.8110 34.1370 168° South 308 354 16,100 -1,440 Descending FlightAware
07:09AM 32.7640 34.1410 176° South 301 346 15,300 -1,440 Descending FlightAware
07:10AM 32.7060 34.1440 178° South 295 339 14,300 -1,500 Descending FlightAware
07:10AM 32.6690 34.1520 170° South 297 342 13,600 -1,620 Descending FlightAware
07:10AM 32.6470 34.1640 155° Southeast 301 346 13,100 -1,260 Descending FlightAware
07:11AM 32.6040 34.1960 148° Southeast 299 344 12,300 -1,320 Descending FlightAware
07:12AM 32.5570 34.2290 149° Southeast 295 339 11,400 -1,560 Descending FlightAware
07:12AM 32.5090 34.2630 149° Southeast 288 331 10,500 -1,380 Descending FlightAware
07:13AM 32.4700 34.2910 149° Southeast 283 326 9,800 -1,140 Descending FlightAware
07:13AM 32.4480 34.3060 150° Southeast 285 328 9,500 -780 Descending FlightAware
07:13AM 32.4260 34.3210 150° Southeast 283 326 9,300 -600 Descending FlightAware
07:14AM 32.4160 34.3280 149° Southeast 283 326 9,200 -660 Descending FlightAware
07:14AM 32.3910 34.3450 150° Southeast 284 327 8,900 -960 Descending FlightAware
07:14AM 32.3580 34.3690 148° Southeast 279 321 8,400 -1,260 Descending FlightAware
07:15AM 32.3320 34.3870 150° Southeast 279 321 7,900 -1,200 Descending FlightAware
07:15AM 32.3250 34.3920 149° Southeast 279 321 7,700 -360 Descending FlightAware
07:16AM 32.2990 34.4100 150° Southeast 279 321 7,700 -1,380 Level FlightAware
07:16AM 32.2730 34.4290 148° Southeast 276 318 6,700 -2,340 Descending FlightAware
07:16AM 32.2430 34.4500 149° Southeast 273 314 6,100 -1,560 Descending FlightAware
07:16AM 32.2330 34.4600 140° Southeast 275 316 5,800 -1,500 Descending FlightAware
07:17AM 32.2260 34.4690 133° Southeast 276 318 5,600 -480 Descending FlightAware
07:17AM 32.2060 34.5010 126° Southeast 278 320 5,500 -540 Descending FlightAware
07:18AM 32.2220 34.4750 306° West 278 320 5,000 -480 Descending FlightAware
07:18AM 32.2070 34.5040 121° Southeast 278 320 5,000 120 Level FlightAware
07:19AM 32.1460 34.6210 122° Southeast 268 308 5,100  Climbing FlightAware
07:19AM 32.1340 34.6440 122° Southeast 266 306 5,000 -120 Descending FlightAware
07:19AM 32.1130 34.6820 123° Southeast 256 295 5,000 60 Level FlightAware
07:20AM 32.1000 34.7040 125° Southeast 256 295 5,100 120 Climbing FlightAware
07:20AM 32.0890 34.7260 121° Southeast 231 266 5,100  Level FlightAware
07:21AM 32.0710 34.7570 124° Southeast 228 262 5,100  Level FlightAware
07:21AM 32.0610 34.7730 126° Southeast 226 260 5,100 -660 Level FlightAware
07:21AM 32.0420 34.7950 136° Southeast 216 249 4,700 -900 Descending FlightAware
07:22AM 32.0280 34.8120 134° Southeast 216 249 4,500 -180 Descending FlightAware
07:22AM 32.0120 34.8310 135° Southeast 198 228 4,600 120 Climbing FlightAware
07:22AM 32.0000 34.8430 140° Southeast 197 227 4,600 -480 Level FlightAware
07:23AM 31.9840 34.8620 135° Southeast 183 211 4,300 -840 Descending FlightAware
07:23AM 31.9730 34.8810 124° Southeast 177 204 3,900 -1,440 Descending FlightAware
07:24AM 31.9750 34.9050 84° East 171 197 3,100 -1,860 Descending FlightAware
07:24AM 31.9790 34.9230 75° East 167 192 2,600 -1,500 Descending FlightAware
07:24AM 31.9830 34.9380 73° East 168 193 2,100 -1,080 Descending FlightAware
07:25AM 31.9900 34.9580 68° East 173 199 1,900 -540 Descending FlightAware
07:25AM 32.0000 34.9640 27° Northeast 171 197 1,800 -600 Descending FlightAware
07:25AM 32.0040 34.9650 12° North 169 194 1,700 -1,020 Descending FlightAware
07:25AM 32.0180 34.9610 346° North 152 175 1,400 -780 Descending FlightAware
07:25AM 32.0210 34.9580 320° Northwest 148 170 1,300 -840 Descending FlightAware
07:26AM 32.0260 34.9470 298° West 148 170 1,100 -780 Descending FlightAware
07:26AM 32.0240 34.9310 262° West 146 168 900 -360 Descending FlightAware
07:26AM 32.0190 34.9100 254° West 146 168 800 -240 Descending FlightAware